Terminal Aerodrome Forecast
Issued by NWS Pocatello, ID

Home | Current Version | Previous Version | Text Only | Print | Product List | Glossary On
Versions: 1 2 3 4 5 6 7 8 9 10 11 12 13 14 15 16 17 18 19 20 21 22 23 24 25
621
FTUS45 KPIH 052041 AAB
TAFIDA
TAF AMD
KIDA 052041Z 0521/0618 20013G23KT P6SM SCT015
     FM060300 VRB06KT P6SM SCT015
     FM060600 VRB06KT 6SM BR BKN010 OVC020=

USA.gov is the U.S. government's official web portal to all federal, state and local government web resources and services.